NCAR-RAP Real-Time Weather Data

Output produced by METARs form (23 February 2020  02:16 UTC)
found at http://weather.rap.ucar.edu/surface/
 
RJTT 230200Z 33009KT 290V010 9999 FEW030 14/M05 Q1014 NOSIG RMK 1CU030 A2996
 
RJAA 230200Z 30009KT 270V350 9999 FEW030 13/M02 Q1014 TEMPO 31018G30KT RMK 1CU030 A2996 MOD TURB OBS AT 0149Z 5NM NE NARITA BTN 6000FT AND 8000FT IN CMB B738 JAL3083
 
RJAF 230200Z 26015G25KT 220V290 9999 VCSH FEW020 SCT060 07/M08 Q1016
 
RJAH 230200Z 30015G25KT 250V320 9999 BKN060 12/M06 Q1014
 
RJGG 230200Z 35016KT 9999 -SHRA FEW025 SCT035 BKN050 08/00 Q1023 NOSIG
 
RJNK 230200Z 30014KT 9999 FEW020TCU SCT050 BKN080 07/02 Q1025
 
RJNT 230200Z 27008KT 9999 -SHRA FEW008 SCT030 BKN050 07/03 Q1024
 
RJNW 230200Z 28015KT 240V320 9999 FEW015 BKN040 05/M04 Q1021
 
RJTF 230200Z 35008KT 300V030 CAVOK 14/M06 Q1014
 
 
 
RJTE 230030Z 27019G29KT 9999 FEW030 13/04 Q1015 RMK 1CU030 A2999
 
RJTF 230200Z 35008KT 300V030 CAVOK 14/M06 Q1014
 
RJTI 230200Z 29012KT 9999 FEW030 14/M06 Q1014
 
 
 
RJTO 230200Z 25015G32KT 200V280 9999 FEW030 12/02 Q1015
 
 
RJTT 230200Z 33009KT 290V010 9999 FEW030 14/M05 Q1014 NOSIG RMK 1CU030 A2996
 
RJTU 230015Z 24010G21KT 9999 FEW050 11/M07 Q1013 RMK 1SC050 A2993
 
RJTY 230156Z AUTO 33003KT 10SM CLR 14/M07 A2999 RMK AO2 SLP160 T01391069 FZRANO $